Time;durP1;ratioP1;P1;durP2;ratioP2;P2;SDS_P1;SDS_P2;PMS_P1;PMS_P2;Temp;Humidity;BMP_temperature;BMP_pressure;BME280_temperature;BME280_humidity;BME280_pressure;Samples;Min_cycle;Max_cycle;Signal;HPM_P1;HPM_P2
2022/11/10 00:01:21;;;;;;;7.80;2.57;;;;;;;10.10;100.00;99341.16;5049076;28;20205;-79
2022/11/10 00:03:50;;;;;;;10.57;2.73;;;;;;;10.07;100.00;99334.28;5050787;28;20201;-80
2022/11/10 00:06:19;;;;;;;7.20;2.40;;;;;;;10.04;100.00;99347.69;5053961;28;20223;-80
2022/11/10 00:08:47;;;;;;;5.43;2.20;;;;;;;9.73;100.00;99344.16;5017274;28;20243;-80
2022/11/10 00:11:16;;;;;;;7.20;2.30;;;;;;;9.60;100.00;99353.75;5047008;28;20209;-79
2022/11/10 00:19:21;;;;;;;9.10;2.07;;;;;;;9.52;100.00;99374.47;5054131;28;20201;-80
2022/11/10 00:21:49;;;;;;;8.93;3.30;;;;;;;9.55;100.00;99382.22;5052819;28;20196;-79
2022/11/10 00:24:18;;;;;;;9.50;3.57;;;;;;;9.44;100.00;99390.75;5052834;28;20189;-80
2022/11/10 00:26:49;;;;;;;9.13;2.67;;;;;;;9.32;100.00;99390.59;5053087;28;20220;-80
2022/11/10 00:29:18;;;;;;;5.57;2.60;;;;;;;9.28;100.00;99397.00;5052240;28;20681;-80
2022/11/10 00:31:48;;;;;;;4.53;2.20;;;;;;;9.19;100.00;99398.34;5017667;28;20339;-80
2022/11/10 00:34:17;;;;;;;5.17;2.23;;;;;;;9.25;100.00;99399.78;5046770;28;20244;-80
2022/11/10 00:36:45;;;;;;;6.70;2.27;;;;;;;9.18;100.00;99399.28;5044518;28;20205;-80
2022/11/10 00:39:13;;;;;;;8.17;2.33;;;;;;;9.20;100.00;99401.84;5043579;28;20201;-80
2022/11/10 00:41:42;;;;;;;3.90;1.90;;;;;;;9.17;100.00;99408.16;5044028;28;20197;-80
2022/11/10 00:44:11;;;;;;;7.43;2.47;;;;;;;9.21;100.00;99420.25;5047391;28;20192;-80
2022/11/10 00:46:41;;;;;;;7.30;2.10;;;;;;;9.23;100.00;99426.31;5048143;28;20640;-80
2022/11/10 00:49:12;;;;;;;8.50;2.67;;;;;;;9.29;100.00;99431.28;5047793;28;20246;-80
2022/11/10 00:51:40;;;;;;;8.00;2.70;;;;;;;9.21;100.00;99432.63;5052881;28;20225;-80
2022/11/10 00:54:09;;;;;;;6.33;2.10;;;;;;;9.21;100.00;99433.47;5053157;28;20193;-80
2022/11/10 00:56:37;;;;;;;10.20;2.70;;;;;;;9.09;100.00;99435.00;5049226;28;20200;-80
2022/11/10 00:59:06;;;;;;;5.33;2.20;;;;;;;9.11;100.00;99441.03;5053264;28;20613;-80
2022/11/10 01:01:34;;;;;;;10.37;2.90;;;;;;;9.07;100.00;99449.19;5054211;28;20227;-80
2022/11/10 01:04:03;;;;;;;9.97;2.97;;;;;;;9.04;100.00;99455.50;5053491;28;20259;-79
2022/11/10 01:06:33;;;;;;;5.40;2.37;;;;;;;9.12;100.00;99460.38;5045229;28;20204;-80
2022/11/10 01:09:02;;;;;;;7.63;2.73;;;;;;;9.10;100.00;99463.13;5050163;28;20225;-80
2022/11/10 01:11:30;;;;;;;6.97;2.83;;;;;;;9.11;100.00;99470.09;5053210;28;20185;-80
2022/11/10 01:13:58;;;;;;;6.87;2.80;;;;;;;9.03;100.00;99469.66;5052902;28;20201;-80
2022/11/10 01:16:29;;;;;;;8.03;2.57;;;;;;;8.83;100.00;99475.13;5051310;28;20200;-80
2022/11/10 01:19:02;;;;;;;4.83;2.57;;;;;;;8.86;100.00;99481.09;5050920;28;20250;-80
2022/11/10 01:21:31;;;;;;;5.57;2.67;;;;;;;8.77;100.00;99488.63;5052949;28;20262;-80
2022/11/10 01:24:02;;;;;;;6.63;2.37;;;;;;;8.70;100.00;99488.13;5054530;28;20193;-80
2022/11/10 01:26:31;;;;;;;5.93;2.30;;;;;;;8.67;100.00;99488.25;5051752;28;20197;-80
2022/11/10 01:28:59;;;;;;;8.17;2.07;;;;;;;8.61;100.00;99485.94;5052425;28;20333;-80
2022/11/10 01:31:28;;;;;;;5.43;2.10;;;;;;;8.69;100.00;99483.78;5047988;28;20212;-80
2022/11/10 01:33:59;;;;;;;5.57;1.90;;;;;;;8.45;100.00;99495.56;5055172;28;20228;-80
2022/11/10 01:36:27;;;;;;;6.30;2.50;;;;;;;8.41;100.00;99486.94;5052590;28;20201;-80
2022/11/10 01:38:55;;;;;;;4.23;2.20;;;;;;;8.36;100.00;99490.72;5055779;28;20212;-80
2022/11/10 01:41:25;;;;;;;7.97;2.77;;;;;;;8.25;100.00;99499.16;5058640;28;20227;-80
2022/11/10 01:44:09;;;;;;;4.23;2.13;;;;;;;8.32;100.00;99508.47;5057253;28;20652;-82
2022/11/10 01:46:40;;;;;;;5.70;2.67;;;;;;;8.51;100.00;99495.25;5059432;28;20201;-81
2022/11/10 01:49:09;;;;;;;5.80;2.13;;;;;;;8.60;100.00;99502.72;5050015;28;20671;-80
2022/11/10 01:51:43;;;;;;;9.07;2.57;;;;;;;8.69;100.00;99494.34;5053674;28;20252;-80
2022/11/10 01:54:16;;;;;;;7.03;2.53;;;;;;;8.59;100.00;99498.38;5054855;28;20223;-80
2022/11/10 01:56:50;;;;;;;7.23;2.47;;;;;;;8.68;100.00;99497.03;5054874;28;20221;-80
2022/11/10 01:59:24;;;;;;;6.47;2.10;;;;;;;8.86;100.00;99496.94;5052589;28;20642;-79
2022/11/10 02:01:58;;;;;;;7.47;2.60;;;;;;;8.87;100.00;99496.00;5047907;28;20253;-79
2022/11/10 02:04:28;;;;;;;8.30;3.33;;;;;;;9.01;100.00;99505.03;5054820;28;20281;-80
2022/11/10 02:06:58;;;;;;;5.93;2.40;;;;;;;8.92;100.00;99514.28;5056119;28;20259;-80
2022/11/10 02:09:27;;;;;;;7.70;3.30;;;;;;;8.89;100.00;99509.16;5056290;28;20718;-80
2022/11/10 02:11:57;;;;;;;5.63;2.33;;;;;;;8.87;100.00;99518.94;5056313;28;20197;-80
2022/11/10 02:14:25;;;;;;;7.60;2.50;;;;;;;8.74;100.00;99512.56;5058535;28;20205;-80
2022/11/10 02:16:54;;;;;;;3.77;2.50;;;;;;;8.73;100.00;99501.16;5053309;28;20679;-80
2022/11/10 02:19:25;;;;;;;4.77;2.10;;;;;;;8.70;100.00;99503.13;5056310;28;20208;-80
2022/11/10 02:21:55;;;;;;;8.43;3.47;;;;;;;8.83;100.00;99512.09;5053654;28;20286;-79
2022/11/10 02:24:24;;;;;;;8.57;2.80;;;;;;;8.86;100.00;99507.50;5053651;28;20231;-80
2022/11/10 02:26:54;;;;;;;9.77;3.13;;;;;;;8.78;100.00;99512.34;5017225;28;20189;-80
2022/11/10 02:29:26;;;;;;;9.10;3.00;;;;;;;8.77;100.00;99512.41;5054557;28;20216;-80
2022/11/10 02:31:54;;;;;;;5.67;2.70;;;;;;;8.58;100.00;99526.53;5054837;28;20196;-79
2022/11/10 02:34:24;;;;;;;6.10;2.50;;;;;;;8.50;100.00;99517.31;5057765;28;20224;-80
2022/11/10 02:36:56;;;;;;;6.30;2.50;;;;;;;8.56;100.00;99522.28;5055461;28;20228;-80
2022/11/10 02:39:28;;;;;;;6.90;2.40;;;;;;;8.59;100.00;99516.84;5055699;28;20221;-80
2022/11/10 02:41:56;;;;;;;7.37;2.97;;;;;;;8.58;100.00;99520.41;4991506;28;20697;-80
2022/11/10 02:44:25;;;;;;;7.37;2.30;;;;;;;8.58;100.00;99507.19;4991734;28;20203;-80
2022/11/10 02:46:53;;;;;;;7.53;2.40;;;;;;;8.57;100.00;99519.53;4989453;28;20195;-80
2022/11/10 02:49:24;;;;;;;7.47;2.37;;;;;;;8.48;100.00;99529.72;4993335;28;20237;-80
2022/11/10 02:51:52;;;;;;;9.57;2.97;;;;;;;8.36;100.00;99525.91;4989665;28;20291;-79
2022/11/10 02:54:20;;;;;;;4.63;2.50;;;;;;;8.36;100.00;99532.97;4994322;28;20233;-80
2022/11/10 02:56:51;;;;;;;7.30;2.40;;;;;;;8.08;100.00;99530.75;4993195;28;20203;-80
2022/11/10 02:59:19;;;;;;;7.33;2.77;;;;;;;7.99;100.00;99540.81;5004008;28;20193;-79
2022/11/10 03:01:48;;;;;;;6.37;2.37;;;;;;;8.15;100.00;99548.88;5054110;28;20200;-79
2022/11/10 03:04:18;;;;;;;5.10;2.77;;;;;;;8.17;100.00;99544.38;5054983;28;20644;-80
2022/11/10 03:06:47;;;;;;;6.30;2.60;;;;;;;8.06;100.00;99554.59;5054233;28;20209;-80
2022/11/10 03:09:20;;;;;;;5.00;2.77;;;;;;;7.95;100.00;99556.88;5055055;28;20243;-80
2022/11/10 03:11:50;;;;;;;5.20;2.40;;;;;;;7.89;100.00;99557.16;5052521;28;20193;-79
2022/11/10 03:14:18;;;;;;;6.80;2.90;;;;;;;7.86;100.00;99555.53;5051006;28;20217;-80
2022/11/10 03:16:47;;;;;;;8.73;3.20;;;;;;;7.87;100.00;99559.88;5051197;28;20201;-80
2022/11/10 03:19:15;;;;;;;8.27;3.10;;;;;;;7.81;100.00;99572.47;5053429;28;20223;-80
2022/11/10 03:21:45;;;;;;;6.10;3.17;;;;;;;7.82;100.00;99582.13;5054599;28;20189;-79
2022/11/10 03:24:13;;;;;;;6.87;2.73;;;;;;;7.74;100.00;99593.88;5054978;28;20249;-79
2022/11/10 03:26:42;;;;;;;8.87;2.40;;;;;;;7.69;100.00;99584.44;5053419;28;20243;-79
2022/11/10 03:29:11;;;;;;;7.17;3.27;;;;;;;7.75;100.00;99584.16;5052540;28;20224;-80
2022/11/10 03:31:40;;;;;;;5.67;2.77;;;;;;;7.70;100.00;99584.38;5051432;28;20326;-80
2022/11/10 03:34:08;;;;;;;7.10;2.70;;;;;;;7.77;100.00;99587.59;5052505;28;20243;-80
2022/11/10 03:36:37;;;;;;;5.80;2.93;;;;;;;7.70;100.00;99587.00;5053499;28;20221;-80
2022/11/10 03:39:05;;;;;;;8.83;4.57;;;;;;;7.59;100.00;99591.06;5054473;28;20201;-80
2022/11/10 03:41:34;;;;;;;9.20;3.80;;;;;;;7.66;100.00;99596.00;5052493;28;20185;-80
2022/11/10 03:44:02;;;;;;;11.30;4.30;;;;;;;7.81;100.00;99598.84;5054378;28;20209;-80
2022/11/10 03:46:32;;;;;;;6.43;3.73;;;;;;;7.84;100.00;99609.28;5050397;28;20197;-79
2022/11/10 03:49:00;;;;;;;7.47;3.50;;;;;;;7.75;100.00;99610.53;5047847;28;20220;-80
2022/11/10 03:51:29;;;;;;;9.50;4.43;;;;;;;7.88;100.00;99611.69;5050569;28;20193;-80
2022/11/10 03:53:57;;;;;;;9.00;4.40;;;;;;;7.85;100.00;99614.47;5054437;28;20200;-80
2022/11/10 03:56:26;;;;;;;10.53;4.60;;;;;;;7.78;100.00;99613.03;5052153;28;20193;-80
2022/11/10 03:58:56;;;;;;;10.53;5.27;;;;;;;7.94;100.00;99624.59;5051808;28;20208;-80
2022/11/10 04:01:25;;;;;;;8.77;5.33;;;;;;;7.95;100.00;99636.84;5051570;28;20235;-79
2022/11/10 04:03:55;;;;;;;12.03;5.40;;;;;;;7.74;100.00;99637.84;5052115;28;20243;-80
2022/11/10 04:09:09;;;;;;;7.43;3.67;;;;;;;7.29;100.00;99638.06;5053852;28;20455;-79
2022/11/10 04:17:09;;;;;;;20.93;6.37;;;;;;;7.34;100.00;99662.44;5052696;28;20208;-80
2022/11/10 04:19:40;;;;;;;34.23;7.83;;;;;;;7.42;100.00;99663.81;5051417;28;20710;-79
2022/11/10 04:23:25;;;;;;;22.70;8.20;;;;;;;7.52;100.00;99661.63;5030686;28;20456;-80
2022/11/10 04:24:59;;;;;;;48.00;9.13;;;;;;;7.53;100.00;99655.47;5053630;28;20205;-80
2022/11/10 04:27:28;;;;;;;13.40;7.80;;;;;;;7.70;100.00;99667.88;5053447;28;20239;-80
2022/11/10 04:29:56;;;;;;;64.07;10.97;;;;;;;7.43;100.00;99667.28;5053335;28;20224;-80
2022/11/10 04:32:26;;;;;;;53.40;9.60;;;;;;;7.42;100.00;99679.63;5052934;28;20189;-79
2022/11/10 04:34:55;;;;;;;30.00;8.53;;;;;;;7.33;100.00;99674.72;5051136;28;20200;-80
2022/11/10 04:37:23;;;;;;;48.60;10.90;;;;;;;7.33;100.00;99669.47;5053944;28;20197;-80
2022/11/10 04:39:52;;;;;;;47.53;8.67;;;;;;;7.30;100.00;99685.41;5048791;28;20247;-80
2022/11/10 04:42:20;;;;;;;29.93;9.20;;;;;;;7.42;100.00;99681.41;5053241;28;20745;-80
2022/11/10 04:44:49;;;;;;;19.43;9.90;;;;;;;7.40;100.00;99692.00;5018944;28;20196;-80
2022/11/10 04:47:17;;;;;;;13.27;9.17;;;;;;;7.58;100.00;99694.78;5042260;28;20640;-80
2022/11/10 04:49:45;;;;;;;16.67;9.03;;;;;;;7.57;100.00;99696.56;5018946;28;20228;-80
2022/11/10 04:52:16;;;;;;;26.50;11.47;;;;;;;7.44;100.00;99696.25;5051055;28;20283;-80
2022/11/10 04:54:45;;;;;;;24.70;9.27;;;;;;;7.37;100.00;99705.31;5051762;28;20208;-80
2022/11/10 04:57:14;;;;;;;16.50;8.17;;;;;;;7.43;100.00;99707.72;5050392;28;20193;-80
2022/11/10 04:59:42;;;;;;;18.80;9.17;;;;;;;7.42;100.00;99715.66;5049316;28;20208;-80
2022/11/10 05:02:11;;;;;;;15.13;8.53;;;;;;;7.46;100.00;99717.25;5054144;28;20201;-80
2022/11/10 05:04:41;;;;;;;12.03;8.03;;;;;;;7.18;100.00;99730.72;5053132;28;20316;-80
2022/11/10 05:07:10;;;;;;;13.10;8.27;;;;;;;7.25;100.00;99733.97;5053085;28;20227;-80
2022/11/10 05:09:40;;;;;;;22.77;8.30;;;;;;;7.27;100.00;99726.84;5053308;28;20311;-80
2022/11/10 05:12:08;;;;;;;10.83;7.93;;;;;;;7.36;100.00;99734.38;5050741;28;20242;-80
2022/11/10 05:14:37;;;;;;;20.33;10.67;;;;;;;7.35;100.00;99743.22;4989257;28;20191;-80
2022/11/10 05:17:06;;;;;;;15.73;9.07;;;;;;;7.38;100.00;99746.56;4985291;28;20203;-80
2022/11/10 05:19:35;;;;;;;28.50;9.27;;;;;;;7.29;100.00;99760.13;4991596;28;20206;-80
2022/11/10 05:22:04;;;;;;;42.27;11.40;;;;;;;7.13;100.00;99753.75;4986708;28;20257;-80
2022/11/10 05:24:33;;;;;;;21.90;9.00;;;;;;;7.11;100.00;99760.84;4988905;28;20198;-80
2022/11/10 05:27:03;;;;;;;49.10;10.50;;;;;;;7.15;100.00;99767.75;4983877;28;20222;-80
2022/11/10 05:29:33;;;;;;;22.40;10.37;;;;;;;7.15;100.00;99768.59;4987570;28;20261;-81
2022/11/10 05:32:01;;;;;;;76.50;12.57;;;;;;;7.05;100.00;99775.16;4995056;28;20185;-80
2022/11/10 05:34:30;;;;;;;55.33;11.67;;;;;;;7.06;100.00;99792.66;5048275;28;20196;-80
2022/11/10 05:36:58;;;;;;;47.97;12.37;;;;;;;7.16;100.00;99790.53;5048478;28;20189;-80
2022/11/10 05:39:27;;;;;;;61.13;13.60;;;;;;;7.15;100.00;99786.19;5055650;28;20220;-80
2022/11/10 05:41:56;;;;;;;88.80;27.67;;;;;;;7.30;100.00;99787.31;5054743;28;20186;-80
2022/11/10 05:44:26;;;;;;;43.63;14.37;;;;;;;7.20;100.00;99791.25;5058341;28;20273;-80
2022/11/10 05:46:54;;;;;;;43.60;11.20;;;;;;;7.16;100.00;99801.06;5055413;28;20201;-80
2022/11/10 05:49:23;;;;;;;57.07;10.77;;;;;;;7.32;100.00;99803.91;5053916;28;20201;-80
2022/11/10 05:51:51;;;;;;;44.70;9.77;;;;;;;7.38;100.00;99806.31;5010718;28;20237;-80
2022/11/10 05:54:21;;;;;;;47.57;10.13;;;;;;;7.31;100.00;99812.75;5010166;28;20233;-80
2022/11/10 05:56:49;;;;;;;47.87;10.20;;;;;;;7.32;100.00;99817.94;5012305;28;20225;-81
2022/11/10 05:59:19;;;;;;;156.13;14.97;;;;;;;7.20;100.00;99815.81;5015605;28;20200;-81
2022/11/10 06:01:49;;;;;;;121.50;13.87;;;;;;;7.15;100.00;99833.59;5013276;28;20715;-80
2022/11/10 06:04:18;;;;;;;97.10;12.00;;;;;;;7.22;100.00;99836.81;5012039;28;20195;-80
2022/11/10 06:06:46;;;;;;;86.77;13.30;;;;;;;7.28;100.00;99841.88;5009470;28;20191;-80
2022/11/10 06:09:15;;;;;;;57.70;10.70;;;;;;;7.32;100.00;99856.63;5012584;28;20668;-80
2022/11/10 06:11:43;;;;;;;72.50;11.57;;;;;;;7.21;100.00;99857.03;5011131;28;20222;-81
2022/11/10 06:14:12;;;;;;;161.63;15.70;;;;;;;7.18;100.00;99860.66;5009256;28;20195;-81
2022/11/10 06:16:40;;;;;;;124.23;14.73;;;;;;;7.27;100.00;99856.81;5034120;28;20197;-81
2022/11/10 06:19:10;;;;;;;194.03;16.80;;;;;;;7.18;100.00;99865.94;5054218;28;20193;-81
2022/11/10 06:21:40;;;;;;;80.60;11.90;;;;;;;7.41;100.00;99882.63;5055096;28;20224;-80
2022/11/10 06:24:10;;;;;;;141.40;14.70;;;;;;;7.39;100.00;99887.94;5047955;28;20185;-80
2022/11/10 06:26:39;;;;;;;97.77;12.87;;;;;;;7.37;100.00;99891.56;5054865;28;20246;-80
2022/11/10 06:29:07;;;;;;;52.50;10.53;;;;;;;7.38;100.00;99894.13;5055836;28;20189;-80
2022/11/10 06:31:36;;;;;;;136.07;14.57;;;;;;;7.43;100.00;99902.75;5050939;28;20217;-81
2022/11/10 06:34:05;;;;;;;35.40;9.00;;;;;;;7.51;100.00;99912.09;5036079;28;20236;-81
2022/11/10 06:36:38;;;;;;;51.70;11.03;;;;;;;7.55;100.00;99914.56;5048526;28;20201;-80
2022/11/10 06:39:06;;;;;;;89.23;12.83;;;;;;;7.56;100.00;99920.69;5055806;28;20211;-81
2022/11/10 06:41:35;;;;;;;127.40;15.37;;;;;;;7.56;100.00;99920.69;5055431;28;20247;-81
2022/11/10 06:44:03;;;;;;;267.83;21.40;;;;;;;7.51;100.00;99936.69;5052803;28;20196;-81
2022/11/10 06:46:31;;;;;;;107.07;16.50;;;;;;;7.60;100.00;99941.59;5049552;28;20229;-81
2022/11/10 06:49:07;;;;;;;56.00;13.73;;;;;;;7.64;100.00;99953.75;5055242;28;20280;-81
2022/11/10 06:51:37;;;;;;;110.90;16.07;;;;;;;7.74;100.00;99956.91;5049436;28;20213;-81
2022/11/10 06:54:05;;;;;;;184.77;18.87;;;;;;;7.53;100.00;99970.88;5051100;28;20215;-81
2022/11/10 06:56:34;;;;;;;104.67;15.67;;;;;;;7.53;100.00;99977.03;5054205;28;20644;-81
2022/11/10 06:59:04;;;;;;;167.13;18.37;;;;;;;7.49;100.00;99972.78;5053274;28;20197;-81
2022/11/10 07:01:32;;;;;;;173.03;20.33;;;;;;;7.61;100.00;99985.50;5054152;28;20205;-80
2022/11/10 07:04:01;;;;;;;311.00;26.77;;;;;;;7.63;100.00;99986.31;5015214;28;20185;-80
2022/11/10 07:06:49;;;;;;;318.83;26.53;;;;;;;7.65;100.00;99991.53;5054585;28;20279;-81
2022/11/10 07:09:17;;;;;;;174.97;19.37;;;;;;;7.79;100.00;99997.09;5052452;28;20197;-80
2022/11/10 07:11:46;;;;;;;454.30;33.53;;;;;;;7.62;100.00;100007.44;5050500;28;20271;-80
2022/11/10 07:14:15;;;;;;;119.73;15.13;;;;;;;7.78;100.00;100005.94;5045905;28;20197;-81
2022/11/10 07:16:43;;;;;;;153.07;18.57;;;;;;;7.88;100.00;100009.09;5049211;28;20259;-81
2022/11/10 07:19:14;;;;;;;152.13;19.77;;;;;;;7.90;100.00;100021.28;5049345;28;20259;-81
2022/11/10 07:21:43;;;;;;;104.00;16.53;;;;;;;8.01;100.00;100015.63;5044571;28;20258;-81
2022/11/10 07:24:14;;;;;;;173.37;20.27;;;;;;;8.00;100.00;100017.34;5046734;28;20652;-81
2022/11/10 07:26:42;;;;;;;142.27;19.00;;;;;;;8.03;100.00;100032.22;5049951;28;20193;-81
2022/11/10 07:29:11;;;;;;;66.50;13.60;;;;;;;8.21;100.00;100036.78;5048564;28;20243;-80
2022/11/10 07:31:40;;;;;;;68.10;14.60;;;;;;;8.19;100.00;100033.31;5069168;28;20248;-81
2022/11/10 07:34:10;;;;;;;65.13;14.83;;;;;;;8.23;100.00;100042.84;5066423;28;20189;-80
2022/11/10 07:36:38;;;;;;;135.23;20.30;;;;;;;8.28;100.00;100040.88;5045399;28;20316;-81
2022/11/10 07:39:10;;;;;;;49.53;14.63;;;;;;;8.25;100.00;100053.34;5053348;28;20283;-80
2022/11/10 07:41:41;;;;;;;59.57;15.00;;;;;;;8.32;100.00;100053.03;5054672;28;20243;-81
2022/11/10 07:44:09;;;;;;;31.70;13.30;;;;;;;8.52;100.00;100043.47;5054287;28;20216;-81
2022/11/10 07:46:37;;;;;;;82.47;16.20;;;;;;;8.48;100.00;100044.50;5053115;28;20185;-80
2022/11/10 07:49:09;;;;;;;59.07;16.63;;;;;;;8.43;100.00;100049.13;5007982;28;20669;-81
2022/11/10 07:51:38;;;;;;;30.00;14.23;;;;;;;8.48;100.00;100052.44;4948492;28;20284;-81
2022/11/10 07:54:07;;;;;;;35.83;14.90;;;;;;;8.39;100.00;100045.75;4951944;28;20201;-80
2022/11/10 07:56:37;;;;;;;40.97;14.30;;;;;;;8.51;100.00;100054.97;4953591;28;20196;-81
2022/11/10 07:59:07;;;;;;;90.97;16.73;;;;;;;8.52;100.00;100064.59;4945610;29;20208;-80
2022/11/10 08:01:37;;;;;;;136.57;19.00;;;;;;;8.42;100.00;100063.25;4948539;28;20263;-80
2022/11/10 08:04:05;;;;;;;127.17;21.17;;;;;;;8.39;100.00;100069.50;4951738;28;20208;-81
2022/11/10 08:06:35;;;;;;;49.40;15.37;;;;;;;8.45;100.00;100068.41;4949997;28;20248;-81
2022/11/10 08:09:04;;;;;;;51.07;15.93;;;;;;;8.63;100.00;100074.72;4947889;28;20216;-81
2022/11/10 08:11:33;;;;;;;120.37;18.53;;;;;;;8.43;100.00;100072.91;4951142;28;20292;-81
2022/11/10 08:14:04;;;;;;;38.97;16.47;;;;;;;8.47;100.00;100079.75;4984861;28;20276;-80
2022/11/10 08:16:35;;;;;;;42.30;13.37;;;;;;;8.51;100.00;100079.59;5003967;28;20196;-81
2022/11/10 08:19:04;;;;;;;24.07;13.80;;;;;;;8.51;100.00;100084.88;5008744;28;20197;-81
2022/11/10 08:21:33;;;;;;;22.57;13.53;;;;;;;8.55;100.00;100096.16;5008859;28;20194;-81
2022/11/10 08:24:01;;;;;;;22.80;12.67;;;;;;;8.75;100.00;100090.03;5010755;28;20268;-82
2022/11/10 08:26:31;;;;;;;23.60;14.53;;;;;;;8.85;100.00;100092.25;5010453;28;20654;-81
2022/11/10 08:28:59;;;;;;;20.77;13.53;;;;;;;8.92;100.00;100084.94;5023651;28;20200;-81
2022/11/10 08:31:28;;;;;;;23.23;15.17;;;;;;;8.99;100.00;100090.81;5047981;28;20236;-80
2022/11/10 08:33:57;;;;;;;34.37;14.93;;;;;;;8.81;100.00;100095.94;5055308;28;20189;-81
2022/11/10 08:36:26;;;;;;;29.47;15.70;;;;;;;8.95;100.00;100102.41;4991330;28;20191;-81
2022/11/10 08:38:55;;;;;;;23.43;15.00;;;;;;;8.95;100.00;100095.34;4988384;28;20691;-81
2022/11/10 08:41:24;;;;;;;22.33;14.53;;;;;;;9.00;100.00;100111.03;4983721;28;20226;-81
2022/11/10 08:43:54;;;;;;;23.60;14.93;;;;;;;9.19;100.00;100119.91;4990547;28;20251;-81
2022/11/10 08:46:23;;;;;;;23.97;14.17;;;;;;;9.06;100.00;100126.59;4988378;28;20253;-81
2022/11/10 08:48:52;;;;;;;21.60;14.97;;;;;;;9.23;100.00;100124.09;4991650;28;20269;-81
2022/11/10 08:51:22;;;;;;;27.40;15.67;;;;;;;9.22;100.00;100129.47;4988431;28;20525;-80
2022/11/10 08:53:52;;;;;;;20.87;15.67;;;;;;;9.27;100.00;100131.00;4951633;28;20266;-80
2022/11/10 08:56:21;;;;;;;23.10;14.73;;;;;;;9.31;100.00;100132.56;5048080;28;20197;-81
2022/11/10 08:58:51;;;;;;;23.67;14.60;;;;;;;9.36;100.00;100127.06;5053363;28;20200;-81
2022/11/10 09:01:24;;;;;;;20.47;13.90;;;;;;;9.50;100.00;100132.63;4913816;29;20730;-81
2022/11/10 09:03:54;;;;;;;23.00;14.63;;;;;;;9.44;100.00;100135.53;4913280;29;20209;-81
2022/11/10 09:06:24;;;;;;;23.63;15.50;;;;;;;9.50;100.00;100140.56;4915092;29;20193;-81
2022/11/10 09:08:55;;;;;;;23.63;14.43;;;;;;;9.56;100.00;100153.53;4912614;29;20197;-81
2022/11/10 09:11:24;;;;;;;22.27;14.60;;;;;;;9.68;100.00;100158.28;4912251;29;20197;-81
2022/11/10 09:13:52;;;;;;;22.57;14.37;;;;;;;9.77;100.00;100148.22;4914269;29;20237;-81
2022/11/10 09:16:21;;;;;;;22.63;14.23;;;;;;;9.70;100.00;100156.41;4910711;29;20236;-80
2022/11/10 09:18:49;;;;;;;19.17;13.03;;;;;;;9.68;100.00;100160.06;4921169;28;20239;-80
2022/11/10 09:21:18;;;;;;;23.57;13.40;;;;;;;9.54;100.00;100162.44;4970239;28;20192;-80
2022/11/10 09:23:52;;;;;;;19.17;12.40;;;;;;;9.52;100.00;100165.16;4967931;28;20187;-81
2022/11/10 09:26:20;;;;;;;19.73;12.23;;;;;;;9.76;100.00;100168.53;4956780;28;20259;-81
2022/11/10 09:28:50;;;;;;;18.30;12.20;;;;;;;9.64;100.00;100174.34;4987821;28;20199;-81
2022/11/10 09:31:19;;;;;;;20.60;11.60;;;;;;;9.75;100.00;100172.97;4984864;28;20230;-81
2022/11/10 09:33:48;;;;;;;19.50;13.23;;;;;;;9.88;100.00;100188.28;4988125;28;20250;-81
2022/11/10 09:36:16;;;;;;;19.00;12.93;;;;;;;10.03;100.00;100185.78;4991498;28;20199;-81
2022/11/10 09:38:44;;;;;;;18.50;13.83;;;;;;;9.89;100.00;100192.66;4984910;28;20213;-80
2022/11/10 09:41:16;;;;;;;23.80;14.50;;;;;;;9.98;100.00;100190.44;4987414;28;20190;-81
2022/11/10 09:43:53;;;;;;;18.97;14.07;;;;;;;9.91;100.00;100185.50;4987908;28;20720;-80
2022/11/10 09:46:34;;;;;;;21.23;14.63;;;;;;;9.94;100.00;100190.63;4988657;28;20202;-81
2022/11/10 09:49:13;;;;;;;19.23;13.57;;;;;;;9.98;100.00;100179.84;4991308;28;20354;-80
2022/11/10 09:51:43;;;;;;;20.10;14.37;;;;;;;10.23;100.00;100197.28;4994509;28;20222;-81
2022/11/10 09:54:29;;;;;;;20.93;11.73;;;;;;;10.08;100.00;100180.31;5007390;28;20191;-81
2022/11/10 09:57:00;;;;;;;19.30;13.10;;;;;;;10.17;100.00;100179.88;5011220;28;20253;-81
2022/11/10 09:59:31;;;;;;;22.33;14.30;;;;;;;10.32;100.00;100189.78;5010836;28;20199;-80
2022/11/10 10:02:03;;;;;;;19.07;13.13;;;;;;;10.26;100.00;100186.59;5006016;28;20230;-81
2022/11/10 10:04:52;;;;;;;19.67;12.17;;;;;;;9.89;100.00;100200.59;5008436;28;20268;-81
2022/11/10 10:07:25;;;;;;;19.93;13.27;;;;;;;9.74;100.00;100210.03;5007557;28;20225;-81
2022/11/10 10:10:02;;;;;;;16.37;12.63;;;;;;;9.81;100.00;100213.28;5033605;28;20193;-80
2022/11/10 10:12:52;;;;;;;22.73;13.37;;;;;;;10.37;100.00;100208.13;5010536;28;20245;-81
2022/11/10 10:15:30;;;;;;;21.20;13.03;;;;;;;10.40;100.00;100205.31;5005388;28;20272;-81
2022/11/10 10:18:13;;;;;;;23.63;11.80;;;;;;;10.86;100.00;100211.09;5006282;28;20206;-81
2022/11/10 10:20:50;;;;;;;21.43;12.03;;;;;;;11.02;100.00;100206.78;4971475;28;20192;-81
2022/11/10 10:23:26;;;;;;;19.47;11.70;;;;;;;11.37;100.00;100209.47;4971551;28;20200;-81
2022/11/10 10:26:19;;;;;;;17.97;11.60;;;;;;;11.78;100.00;100190.59;4975609;28;20290;-81
2022/11/10 10:28:51;;;;;;;19.17;11.10;;;;;;;11.90;100.00;100180.19;4975269;28;20227;-81
2022/11/10 10:31:23;;;;;;;19.13;11.97;;;;;;;11.91;100.00;100175.75;5017184;28;20621;-81
2022/11/10 10:33:54;;;;;;;15.83;10.90;;;;;;;11.99;100.00;100165.59;5033859;28;20766;-81
2022/11/10 10:36:24;;;;;;;20.03;11.17;;;;;;;12.26;100.00;100153.47;4985371;28;20194;-81
2022/11/10 10:38:56;;;;;;;16.23;10.83;;;;;;;12.57;100.00;100151.75;5016975;28;20206;-81
2022/11/10 10:41:27;;;;;;;16.20;11.10;;;;;;;12.56;100.00;100145.59;5029478;28;20197;-81
2022/11/10 10:43:59;;;;;;;18.30;10.27;;;;;;;12.61;100.00;100137.34;5034406;28;20202;-80
2022/11/10 10:46:30;;;;;;;17.20;9.77;;;;;;;12.40;100.00;100130.56;5032503;28;20197;-81
2022/11/10 10:49:15;;;;;;;17.37;9.43;;;;;;;11.83;100.00;100140.78;5031371;28;20198;-81
2022/11/10 10:52:10;;;;;;;19.40;9.20;;;;;;;12.12;100.00;100153.34;5046232;28;20391;-81
2022/11/10 10:54:40;;;;;;;17.80;9.17;;;;;;;12.33;100.00;100149.50;5055661;28;20197;-81
2022/11/10 10:57:21;;;;;;;16.00;9.67;;;;;;;12.54;100.00;100141.28;5055454;28;20209;-81
2022/11/10 10:59:52;;;;;;;14.50;8.93;;;;;;;12.56;100.00;100150.91;5053759;28;20220;-81
2022/11/10 11:02:25;;;;;;;16.10;8.43;;;;;;;12.62;100.00;100133.72;5047199;28;20255;-81
2022/11/10 11:05:13;;;;;;;12.10;7.83;;;;;;;12.57;100.00;100152.59;5055385;28;20189;-81
2022/11/10 11:07:42;;;;;;;15.83;7.83;;;;;;;12.58;100.00;100154.31;5055451;28;20308;-81
2022/11/10 11:10:21;;;;;;;17.93;9.97;;;;;;;12.71;100.00;100150.97;5057673;28;20197;-80
2022/11/10 11:12:49;;;;;;;20.07;10.57;;;;;;;12.54;100.00;100154.56;5055120;28;20256;-81
2022/11/10 11:15:27;;;;;;;11.60;7.00;;;;;;;12.80;100.00;100156.63;5048337;28;20196;-81
2022/11/10 11:17:58;;;;;;;14.30;8.13;;;;;;;12.56;100.00;100156.22;5052637;28;20208;-81
2022/11/10 11:20:39;;;;;;;15.37;9.73;;;;;;;12.69;100.00;100147.53;5055081;28;20196;-81
2022/11/10 11:23:25;;;;;;;13.97;7.97;;;;;;;12.83;100.00;100145.78;5055530;28;20209;-81
2022/11/10 11:26:02;;;;;;;14.30;7.17;;;;;;;12.63;100.00;100139.91;5055624;28;20205;-81
2022/11/10 11:28:39;;;;;;;16.90;7.20;;;;;;;12.76;100.00;100149.75;5055600;28;20204;-81
2022/11/10 11:31:19;;;;;;;12.40;6.23;;;;;;;12.78;100.00;100144.34;5050247;28;20193;-81
2022/11/10 11:33:51;;;;;;;14.50;6.00;;;;;;;12.82;100.00;100144.06;5052039;28;20252;-81
2022/11/10 11:36:30;;;;;;;12.90;6.73;;;;;;;12.92;100.00;100144.41;5052964;28;20204;-81
2022/11/10 11:39:13;;;;;;;14.13;6.90;;;;;;;13.32;100.00;100137.66;5054846;28;20193;-81
2022/11/10 11:41:50;;;;;;;16.30;5.80;;;;;;;13.18;100.00;100137.56;5055568;28;20303;-81
2022/11/10 11:44:39;;;;;;;10.23;5.80;;;;;;;13.06;100.00;100144.47;5051007;28;20193;-81
2022/11/10 11:47:24;;;;;;;11.67;4.80;;;;;;;13.18;100.00;100135.78;5048633;28;20213;-81
2022/11/10 11:50:15;;;;;;;11.50;5.07;;;;;;;13.03;100.00;100135.84;5056647;28;20524;-81